sensor_id;sensor_type;location;lat;lon;timestamp;temperature;humidity
37300;DHT22;23184;51.902;12.836;2024-01-10T00:00:10;-8.00;99.90
37300;DHT22;23184;51.902;12.836;2024-01-10T00:02:36;-8.10;99.90
37300;DHT22;23184;51.902;12.836;2024-01-10T00:05:01;-8.10;99.90
37300;DHT22;23184;51.902;12.836;2024-01-10T00:07:27;-8.10;99.90
37300;DHT22;23184;51.902;12.836;2024-01-10T00:09:52;-8.20;99.90
37300;DHT22;23184;51.902;12.836;2024-01-10T00:12:18;-8.20;99.90
37300;DHT22;23184;51.902;12.836;2024-01-10T00:14:43;-8.20;99.90
37300;DHT22;23184;51.902;12.836;2024-01-10T00:17:09;-8.20;99.90
37300;DHT22;23184;51.902;12.836;2024-01-10T00:19:34;-8.20;99.90
37300;DHT22;23184;51.902;12.836;2024-01-10T00:22:00;-8.10;99.90
37300;DHT22;23184;51.902;12.836;2024-01-10T00:24:25;-8.10;99.90
37300;DHT22;23184;51.902;12.836;2024-01-10T00:26:51;-8.10;99.90
37300;DHT22;23184;51.902;12.836;2024-01-10T00:29:16;-8.10;99.90
37300;DHT22;23184;51.902;12.836;2024-01-10T00:31:42;-8.10;99.90
37300;DHT22;23184;51.902;12.836;2024-01-10T00:34:07;-8.10;99.90
37300;DHT22;23184;51.902;12.836;2024-01-10T00:36:33;-8.10;99.90
37300;DHT22;23184;51.902;12.836;2024-01-10T00:38:58;-8.10;99.90
37300;DHT22;23184;51.902;12.836;2024-01-10T00:41:24;-8.20;99.90
37300;DHT22;23184;51.902;12.836;2024-01-10T00:43:49;-8.20;99.90
37300;DHT22;23184;51.902;12.836;2024-01-10T00:46:15;-8.20;99.90
37300;DHT22;23184;51.902;12.836;2024-01-10T00:48:40;-8.20;99.90
37300;DHT22;23184;51.902;12.836;2024-01-10T00:51:06;-8.20;99.90
37300;DHT22;23184;51.902;12.836;2024-01-10T00:53:34;-8.20;99.90
37300;DHT22;23184;51.902;12.836;2024-01-10T00:56:00;-8.20;99.90
37300;DHT22;23184;51.902;12.836;2024-01-10T00:58:25;-8.20;99.90
37300;DHT22;23184;51.902;12.836;2024-01-10T01:00:51;-8.20;99.90
37300;DHT22;23184;51.902;12.836;2024-01-10T01:03:16;-8.20;99.90
37300;DHT22;23184;51.902;12.836;2024-01-10T01:05:41;-8.20;99.90
37300;DHT22;23184;51.902;12.836;2024-01-10T01:08:07;-8.30;99.90
37300;DHT22;23184;51.902;12.836;2024-01-10T01:10:33;-8.30;99.90
37300;DHT22;23184;51.902;12.836;2024-01-10T01:12:59;-8.30;99.90
37300;DHT22;23184;51.902;12.836;2024-01-10T01:15:24;-8.30;99.90
37300;DHT22;23184;51.902;12.836;2024-01-10T01:17:50;-8.30;99.90
37300;DHT22;23184;51.902;12.836;2024-01-10T01:20:15;-8.30;99.90
37300;DHT22;23184;51.902;12.836;2024-01-10T01:22:41;-8.30;99.90
37300;DHT22;23184;51.902;12.836;2024-01-10T01:25:07;-8.30;99.90
37300;DHT22;23184;51.902;12.836;2024-01-10T01:27:32;-8.30;99.90
37300;DHT22;23184;51.902;12.836;2024-01-10T01:29:58;-8.20;99.90
37300;DHT22;23184;51.902;12.836;2024-01-10T01:32:23;-8.20;99.90
37300;DHT22;23184;51.902;12.836;2024-01-10T01:34:49;-8.30;99.90
37300;DHT22;23184;51.902;12.836;2024-01-10T01:37:15;-8.30;99.90
37300;DHT22;23184;51.902;12.836;2024-01-10T01:39:40;-8.30;99.90
37300;DHT22;23184;51.902;12.836;2024-01-10T01:42:06;-8.30;99.90
37300;DHT22;23184;51.902;12.836;2024-01-10T01:44:31;-8.30;99.90
37300;DHT22;23184;51.902;12.836;2024-01-10T01:46:57;-8.30;99.90
37300;DHT22;23184;51.902;12.836;2024-01-10T01:49:24;-8.40;99.90
37300;DHT22;23184;51.902;12.836;2024-01-10T01:51:50;-8.40;99.90
37300;DHT22;23184;51.902;12.836;2024-01-10T01:54:16;-8.40;99.90
37300;DHT22;23184;51.902;12.836;2024-01-10T01:56:43;-8.40;99.90
37300;DHT22;23184;51.902;12.836;2024-01-10T01:59:10;-8.40;99.90
37300;DHT22;23184;51.902;12.836;2024-01-10T02:01:36;-8.40;99.90
37300;DHT22;23184;51.902;12.836;2024-01-10T02:04:02;-8.40;99.90
37300;DHT22;23184;51.902;12.836;2024-01-10T02:06:28;-8.40;99.90
37300;DHT22;23184;51.902;12.836;2024-01-10T02:08:55;-8.50;99.90
37300;DHT22;23184;51.902;12.836;2024-01-10T02:11:21;-8.50;99.90
37300;DHT22;23184;51.902;12.836;2024-01-10T02:13:46;-8.50;99.90
37300;DHT22;23184;51.902;12.836;2024-01-10T02:16:12;-8.60;99.90
37300;DHT22;23184;51.902;12.836;2024-01-10T02:18:38;-8.50;99.90
37300;DHT22;23184;51.902;12.836;2024-01-10T02:21:03;-8.50;99.90
37300;DHT22;23184;51.902;12.836;2024-01-10T02:23:29;-8.50;99.90
37300;DHT22;23184;51.902;12.836;2024-01-10T02:25:54;-8.60;99.90
37300;DHT22;23184;51.902;12.836;2024-01-10T02:28:20;-8.60;99.90
37300;DHT22;23184;51.902;12.836;2024-01-10T02:30:45;-8.60;99.90
37300;DHT22;23184;51.902;12.836;2024-01-10T02:33:12;-8.60;99.90
37300;DHT22;23184;51.902;12.836;2024-01-10T02:35:38;-8.60;99.90
37300;DHT22;23184;51.902;12.836;2024-01-10T02:38:04;-8.60;99.90
37300;DHT22;23184;51.902;12.836;2024-01-10T02:40:29;-8.60;99.90
37300;DHT22;23184;51.902;12.836;2024-01-10T02:42:55;-8.60;99.90
37300;DHT22;23184;51.902;12.836;2024-01-10T02:45:20;-8.60;99.90
37300;DHT22;23184;51.902;12.836;2024-01-10T02:47:46;-8.60;99.90
37300;DHT22;23184;51.902;12.836;2024-01-10T02:50:12;-8.60;99.90
37300;DHT22;23184;51.902;12.836;2024-01-10T02:52:37;-8.70;99.90
37300;DHT22;23184;51.902;12.836;2024-01-10T02:55:03;-8.70;99.90
37300;DHT22;23184;51.902;12.836;2024-01-10T02:57:28;-8.70;99.90
37300;DHT22;23184;51.902;12.836;2024-01-10T02:59:54;-8.70;99.90
37300;DHT22;23184;51.902;12.836;2024-01-10T03:02:19;-8.70;99.90
37300;DHT22;23184;51.902;12.836;2024-01-10T03:04:45;-8.70;99.90
37300;DHT22;23184;51.902;12.836;2024-01-10T03:07:10;-8.70;99.90
37300;DHT22;23184;51.902;12.836;2024-01-10T03:09:36;-8.70;99.90
37300;DHT22;23184;51.902;12.836;2024-01-10T03:12:01;-8.70;99.90
37300;DHT22;23184;51.902;12.836;2024-01-10T03:14:27;-8.80;99.90
37300;DHT22;23184;51.902;12.836;2024-01-10T03:16:52;-8.80;99.90
37300;DHT22;23184;51.902;12.836;2024-01-10T03:19:18;-8.80;99.90
37300;DHT22;23184;51.902;12.836;2024-01-10T03:21:44;-8.80;99.90
37300;DHT22;23184;51.902;12.836;2024-01-10T03:24:09;-8.80;99.90
37300;DHT22;23184;51.902;12.836;2024-01-10T03:26:35;-8.80;99.90
37300;DHT22;23184;51.902;12.836;2024-01-10T03:29:00;-8.80;99.90
37300;DHT22;23184;51.902;12.836;2024-01-10T03:31:29;-8.80;99.90
37300;DHT22;23184;51.902;12.836;2024-01-10T03:33:56;-8.80;99.90
37300;DHT22;23184;51.902;12.836;2024-01-10T03:36:21;-8.80;99.90
37300;DHT22;23184;51.902;12.836;2024-01-10T03:38:47;-8.90;99.90
37300;DHT22;23184;51.902;12.836;2024-01-10T03:41:17;-8.80;99.90
37300;DHT22;23184;51.902;12.836;2024-01-10T03:43:43;-8.80;99.90
37300;DHT22;23184;51.902;12.836;2024-01-10T03:46:09;-8.90;99.90
37300;DHT22;23184;51.902;12.836;2024-01-10T03:48:35;-8.90;99.90
37300;DHT22;23184;51.902;12.836;2024-01-10T03:51:00;-8.80;99.90
37300;DHT22;23184;51.902;12.836;2024-01-10T03:53:26;-8.80;99.90
37300;DHT22;23184;51.902;12.836;2024-01-10T03:55:52;-8.80;99.90
37300;DHT22;23184;51.902;12.836;2024-01-10T03:58:17;-8.80;99.90
37300;DHT22;23184;51.902;12.836;2024-01-10T04:00:43;-8.80;99.90
37300;DHT22;23184;51.902;12.836;2024-01-10T04:03:08;-8.80;99.90
37300;DHT22;23184;51.902;12.836;2024-01-10T04:05:34;-8.80;99.90
37300;DHT22;23184;51.902;12.836;2024-01-10T04:07:59;-8.80;99.90
37300;DHT22;23184;51.902;12.836;2024-01-10T04:10:25;-8.80;99.90
37300;DHT22;23184;51.902;12.836;2024-01-10T04:12:50;-8.80;99.90
37300;DHT22;23184;51.902;12.836;2024-01-10T04:15:16;-8.90;99.90
37300;DHT22;23184;51.902;12.836;2024-01-10T04:17:43;-8.80;99.90
37300;DHT22;23184;51.902;12.836;2024-01-10T04:20:09;-8.80;99.90
37300;DHT22;23184;51.902;12.836;2024-01-10T04:22:34;-8.80;99.90
37300;DHT22;23184;51.902;12.836;2024-01-10T04:25:01;-8.80;99.90
37300;DHT22;23184;51.902;12.836;2024-01-10T04:27:27;-8.80;99.90
37300;DHT22;23184;51.902;12.836;2024-01-10T04:29:53;-8.80;99.90
37300;DHT22;23184;51.902;12.836;2024-01-10T04:32:19;-8.80;99.90
37300;DHT22;23184;51.902;12.836;2024-01-10T04:34:44;-8.80;99.90
37300;DHT22;23184;51.902;12.836;2024-01-10T04:37:10;-8.80;99.90
37300;DHT22;23184;51.902;12.836;2024-01-10T04:39:36;-8.90;99.90
37300;DHT22;23184;51.902;12.836;2024-01-10T04:42:03;-8.90;99.90
37300;DHT22;23184;51.902;12.836;2024-01-10T04:44:29;-8.90;99.90
37300;DHT22;23184;51.902;12.836;2024-01-10T04:46:54;-8.90;99.90
37300;DHT22;23184;51.902;12.836;2024-01-10T04:49:20;-8.90;99.90
37300;DHT22;23184;51.902;12.836;2024-01-10T04:51:46;-8.90;99.90
37300;DHT22;23184;51.902;12.836;2024-01-10T04:54:11;-8.90;99.90
37300;DHT22;23184;51.902;12.836;2024-01-10T04:56:37;-8.90;99.90
37300;DHT22;23184;51.902;12.836;2024-01-10T04:59:03;-8.90;99.90
37300;DHT22;23184;51.902;12.836;2024-01-10T05:01:28;-8.90;99.90
37300;DHT22;23184;51.902;12.836;2024-01-10T05:03:54;-8.80;99.90
37300;DHT22;23184;51.902;12.836;2024-01-10T05:06:20;-8.90;99.90
37300;DHT22;23184;51.902;12.836;2024-01-10T05:08:45;-8.90;99.90
37300;DHT22;23184;51.902;12.836;2024-01-10T05:11:11;-8.90;99.90
37300;DHT22;23184;51.902;12.836;2024-01-10T05:13:37;-8.90;99.90
37300;DHT22;23184;51.902;12.836;2024-01-10T05:16:02;-8.90;99.90
37300;DHT22;23184;51.902;12.836;2024-01-10T05:18:28;-8.90;99.90
37300;DHT22;23184;51.902;12.836;2024-01-10T05:20:53;-9.00;99.90
37300;DHT22;23184;51.902;12.836;2024-01-10T05:23:19;-9.00;99.90
37300;DHT22;23184;51.902;12.836;2024-01-10T05:25:45;-9.10;99.90
37300;DHT22;23184;51.902;12.836;2024-01-10T05:28:10;-9.00;99.90
37300;DHT22;23184;51.902;12.836;2024-01-10T05:30:36;-9.10;99.90
37300;DHT22;23184;51.902;12.836;2024-01-10T05:33:01;-9.10;99.90
37300;DHT22;23184;51.902;12.836;2024-01-10T05:35:27;-9.00;99.90
37300;DHT22;23184;51.902;12.836;2024-01-10T05:37:52;-9.00;99.90
37300;DHT22;23184;51.902;12.836;2024-01-10T05:40:18;-8.90;99.90
37300;DHT22;23184;51.902;12.836;2024-01-10T05:42:44;-9.00;99.90
37300;DHT22;23184;51.902;12.836;2024-01-10T05:45:10;-9.00;99.90
37300;DHT22;23184;51.902;12.836;2024-01-10T05:47:35;-9.00;99.90
37300;DHT22;23184;51.902;12.836;2024-01-10T05:50:01;-9.00;99.90
37300;DHT22;23184;51.902;12.836;2024-01-10T05:52:27;-9.00;99.90
37300;DHT22;23184;51.902;12.836;2024-01-10T05:54:53;-9.00;99.90
37300;DHT22;23184;51.902;12.836;2024-01-10T05:57:19;-9.00;99.90
37300;DHT22;23184;51.902;12.836;2024-01-10T05:59:44;-9.10;99.90
37300;DHT22;23184;51.902;12.836;2024-01-10T06:02:10;-9.10;99.90
37300;DHT22;23184;51.902;12.836;2024-01-10T06:04:35;-9.10;99.90
37300;DHT22;23184;51.902;12.836;2024-01-10T06:07:01;-9.10;99.90
37300;DHT22;23184;51.902;12.836;2024-01-10T06:09:27;-9.20;99.90
37300;DHT22;23184;51.902;12.836;2024-01-10T06:11:52;-9.20;99.90
37300;DHT22;23184;51.902;12.836;2024-01-10T06:14:18;-9.20;99.90
37300;DHT22;23184;51.902;12.836;2024-01-10T06:16:44;-9.30;99.90
37300;DHT22;23184;51.902;12.836;2024-01-10T06:19:10;-9.30;99.90
37300;DHT22;23184;51.902;12.836;2024-01-10T06:21:36;-9.20;99.90
37300;DHT22;23184;51.902;12.836;2024-01-10T06:24:02;-9.20;99.90
37300;DHT22;23184;51.902;12.836;2024-01-10T06:26:28;-9.20;99.90
37300;DHT22;23184;51.902;12.836;2024-01-10T06:28:53;-9.20;99.90
37300;DHT22;23184;51.902;12.836;2024-01-10T06:31:19;-9.20;99.90
37300;DHT22;23184;51.902;12.836;2024-01-10T06:33:45;-9.10;99.90
37300;DHT22;23184;51.902;12.836;2024-01-10T06:36:11;-9.10;99.90
37300;DHT22;23184;51.902;12.836;2024-01-10T06:38:38;-9.10;99.90
37300;DHT22;23184;51.902;12.836;2024-01-10T06:41:10;-9.10;99.90
37300;DHT22;23184;51.902;12.836;2024-01-10T06:43:39;-9.00;99.90
37300;DHT22;23184;51.902;12.836;2024-01-10T06:46:05;-9.10;99.90
37300;DHT22;23184;51.902;12.836;2024-01-10T06:48:30;-9.10;99.90
37300;DHT22;23184;51.902;12.836;2024-01-10T06:50:57;-9.20;99.90
37300;DHT22;23184;51.902;12.836;2024-01-10T06:53:22;-9.20;99.90
37300;DHT22;23184;51.902;12.836;2024-01-10T06:55:48;-9.20;99.90
37300;DHT22;23184;51.902;12.836;2024-01-10T06:58:13;-9.20;99.90
37300;DHT22;23184;51.902;12.836;2024-01-10T07:00:39;-9.10;99.90
37300;DHT22;23184;51.902;12.836;2024-01-10T07:03:04;-9.10;99.90
37300;DHT22;23184;51.902;12.836;2024-01-10T07:05:30;-9.10;99.90
37300;DHT22;23184;51.902;12.836;2024-01-10T07:07:57;-9.10;99.90
37300;DHT22;23184;51.902;12.836;2024-01-10T07:10:23;-9.10;99.90
37300;DHT22;23184;51.902;12.836;2024-01-10T07:12:53;-9.00;99.90
37300;DHT22;23184;51.902;12.836;2024-01-10T07:15:19;-9.00;99.90
37300;DHT22;23184;51.902;12.836;2024-01-10T07:17:44;-9.00;99.90
37300;DHT22;23184;51.902;12.836;2024-01-10T07:20:10;-9.00;99.90
37300;DHT22;23184;51.902;12.836;2024-01-10T07:22:37;-9.00;99.90
37300;DHT22;23184;51.902;12.836;2024-01-10T07:25:10;-9.00;99.90
37300;DHT22;23184;51.902;12.836;2024-01-10T07:27:35;-9.00;99.90
37300;DHT22;23184;51.902;12.836;2024-01-10T07:30:06;-9.00;99.90
37300;DHT22;23184;51.902;12.836;2024-01-10T07:32:45;-9.00;99.90
37300;DHT22;23184;51.902;12.836;2024-01-10T07:35:11;-9.00;99.90
37300;DHT22;23184;51.902;12.836;2024-01-10T07:37:41;-9.00;99.90
37300;DHT22;23184;51.902;12.836;2024-01-10T07:40:08;-9.00;99.90
37300;DHT22;23184;51.902;12.836;2024-01-10T07:42:36;-8.90;99.90
37300;DHT22;23184;51.902;12.836;2024-01-10T07:45:02;-8.90;99.90
37300;DHT22;23184;51.902;12.836;2024-01-10T07:47:32;-8.90;99.90
37300;DHT22;23184;51.902;12.836;2024-01-10T07:49:59;-8.90;99.90
37300;DHT22;23184;51.902;12.836;2024-01-10T07:52:25;-8.80;99.90
37300;DHT22;23184;51.902;12.836;2024-01-10T07:54:51;-8.90;99.90
37300;DHT22;23184;51.902;12.836;2024-01-10T07:57:16;-8.80;99.90
37300;DHT22;23184;51.902;12.836;2024-01-10T07:59:44;-8.80;99.90
37300;DHT22;23184;51.902;12.836;2024-01-10T08:02:09;-8.80;99.90
37300;DHT22;23184;51.902;12.836;2024-01-10T08:04:35;-8.80;99.90
37300;DHT22;23184;51.902;12.836;2024-01-10T08:07:01;-8.70;99.90
37300;DHT22;23184;51.902;12.836;2024-01-10T08:09:27;-8.70;99.90
37300;DHT22;23184;51.902;12.836;2024-01-10T08:11:52;-8.70;99.90
37300;DHT22;23184;51.902;12.836;2024-01-10T08:14:18;-8.60;99.90
37300;DHT22;23184;51.902;12.836;2024-01-10T08:16:43;-8.60;99.90
37300;DHT22;23184;51.902;12.836;2024-01-10T08:19:10;-8.50;99.90
37300;DHT22;23184;51.902;12.836;2024-01-10T08:21:36;-8.50;99.90
37300;DHT22;23184;51.902;12.836;2024-01-10T08:24:02;-8.40;99.90
37300;DHT22;23184;51.902;12.836;2024-01-10T08:26:28;-8.30;99.90
37300;DHT22;23184;51.902;12.836;2024-01-10T08:28:54;-8.30;99.90
37300;DHT22;23184;51.902;12.836;2024-01-10T08:31:20;-8.20;99.90
37300;DHT22;23184;51.902;12.836;2024-01-10T08:33:45;-8.10;99.90
37300;DHT22;23184;51.902;12.836;2024-01-10T08:36:12;-8.10;99.90
37300;DHT22;23184;51.902;12.836;2024-01-10T08:38:38;-8.00;99.90
37300;DHT22;23184;51.902;12.836;2024-01-10T08:41:04;-7.90;99.90
37300;DHT22;23184;51.902;12.836;2024-01-10T08:43:29;-7.80;99.90
37300;DHT22;23184;51.902;12.836;2024-01-10T08:45:56;-7.80;99.90
37300;DHT22;23184;51.902;12.836;2024-01-10T08:48:23;-7.70;99.90
37300;DHT22;23184;51.902;12.836;2024-01-10T08:50:49;-7.60;99.90
37300;DHT22;23184;51.902;12.836;2024-01-10T08:53:14;-7.50;99.90
37300;DHT22;23184;51.902;12.836;2024-01-10T08:55:41;-7.20;99.90
37300;DHT22;23184;51.902;12.836;2024-01-10T09:00:33;-5.40;99.90
37300;DHT22;23184;51.902;12.836;2024-01-10T09:02:59;-4.50;99.90
37300;DHT22;23184;51.902;12.836;2024-01-10T09:05:25;-3.90;99.90
37300;DHT22;23184;51.902;12.836;2024-01-10T09:07:50;-3.50;99.90
37300;DHT22;23184;51.902;12.836;2024-01-10T09:10:16;-3.50;99.90
37300;DHT22;23184;51.902;12.836;2024-01-10T09:12:41;-3.60;99.90
37300;DHT22;23184;51.902;12.836;2024-01-10T09:15:11;-3.80;99.90
37300;DHT22;23184;51.902;12.836;2024-01-10T09:17:39;-4.10;99.90
37300;DHT22;23184;51.902;12.836;2024-01-10T09:20:05;-4.40;99.90
37300;DHT22;23184;51.902;12.836;2024-01-10T09:22:30;-4.70;99.90
37300;DHT22;23184;51.902;12.836;2024-01-10T09:24:56;-4.90;99.90
37300;DHT22;23184;51.902;12.836;2024-01-10T09:27:21;-5.10;99.90
37300;DHT22;23184;51.902;12.836;2024-01-10T09:29:48;-5.20;99.90
37300;DHT22;23184;51.902;12.836;2024-01-10T09:32:13;-5.30;99.90
37300;DHT22;23184;51.902;12.836;2024-01-10T09:34:39;-5.40;99.90
37300;DHT22;23184;51.902;12.836;2024-01-10T09:37:04;-5.50;99.90
37300;DHT22;23184;51.902;12.836;2024-01-10T09:39:30;-5.50;99.90
37300;DHT22;23184;51.902;12.836;2024-01-10T09:41:57;-5.50;99.90
37300;DHT22;23184;51.902;12.836;2024-01-10T09:44:23;-5.50;99.90
37300;DHT22;23184;51.902;12.836;2024-01-10T09:46:52;-5.50;99.90
37300;DHT22;23184;51.902;12.836;2024-01-10T09:49:19;-5.50;99.90
37300;DHT22;23184;51.902;12.836;2024-01-10T09:51:49;-5.40;99.90
37300;DHT22;23184;51.902;12.836;2024-01-10T09:54:16;-5.40;99.90
37300;DHT22;23184;51.902;12.836;2024-01-10T09:56:42;-5.30;99.90
37300;DHT22;23184;51.902;12.836;2024-01-10T09:59:09;-5.30;99.90
37300;DHT22;23184;51.902;12.836;2024-01-10T10:01:40;-5.30;99.90
37300;DHT22;23184;51.902;12.836;2024-01-10T10:04:07;-5.30;99.90
37300;DHT22;23184;51.902;12.836;2024-01-10T10:06:34;-5.20;99.90
37300;DHT22;23184;51.902;12.836;2024-01-10T10:09:00;-5.20;99.90
37300;DHT22;23184;51.902;12.836;2024-01-10T10:11:26;-5.20;99.90
37300;DHT22;23184;51.902;12.836;2024-01-10T10:13:51;-5.20;99.90
37300;DHT22;23184;51.902;12.836;2024-01-10T10:16:23;-5.20;99.90
37300;DHT22;23184;51.902;12.836;2024-01-10T10:18:52;-5.10;99.90
37300;DHT22;23184;51.902;12.836;2024-01-10T10:21:24;-5.10;99.90
37300;DHT22;23184;51.902;12.836;2024-01-10T10:24:01;-5.00;99.90
37300;DHT22;23184;51.902;12.836;2024-01-10T10:26:29;-5.00;99.90
37300;DHT22;23184;51.902;12.836;2024-01-10T10:28:57;-5.00;99.90
37300;DHT22;23184;51.902;12.836;2024-01-10T10:31:24;-4.90;99.90
37300;DHT22;23184;51.902;12.836;2024-01-10T10:33:51;-4.90;99.90
37300;DHT22;23184;51.902;12.836;2024-01-10T10:36:17;-4.80;99.90
37300;DHT22;23184;51.902;12.836;2024-01-10T10:38:42;-4.70;99.90
37300;DHT22;23184;51.902;12.836;2024-01-10T10:41:08;-4.60;99.90
37300;DHT22;23184;51.902;12.836;2024-01-10T10:43:36;-4.50;99.90
37300;DHT22;23184;51.902;12.836;2024-01-10T10:46:04;-4.50;99.90
37300;DHT22;23184;51.902;12.836;2024-01-10T10:48:33;-4.50;99.90
37300;DHT22;23184;51.902;12.836;2024-01-10T10:53:32;-4.30;99.90
37300;DHT22;23184;51.902;12.836;2024-01-10T10:55:59;-4.30;99.90
37300;DHT22;23184;51.902;12.836;2024-01-10T10:58:25;-4.30;99.90
37300;DHT22;23184;51.902;12.836;2024-01-10T11:00:53;-4.20;99.90
37300;DHT22;23184;51.902;12.836;2024-01-10T11:03:19;-4.10;99.90
37300;DHT22;23184;51.902;12.836;2024-01-10T11:05:46;-4.10;99.90
37300;DHT22;23184;51.902;12.836;2024-01-10T11:08:15;-4.00;99.90
37300;DHT22;23184;51.902;12.836;2024-01-10T11:10:42;-4.00;99.90
37300;DHT22;23184;51.902;12.836;2024-01-10T11:16:13;-3.90;99.90
37300;DHT22;23184;51.902;12.836;2024-01-10T11:18:51;-3.90;99.90
37300;DHT22;23184;51.902;12.836;2024-01-10T11:24:04;-3.80;99.90
37300;DHT22;23184;51.902;12.836;2024-01-10T11:26:32;-3.80;99.90
37300;DHT22;23184;51.902;12.836;2024-01-10T11:28:58;-3.80;99.90
37300;DHT22;23184;51.902;12.836;2024-01-10T11:31:29;-3.70;99.90
37300;DHT22;23184;51.902;12.836;2024-01-10T11:34:02;-3.60;99.90
37300;DHT22;23184;51.902;12.836;2024-01-10T11:36:28;-3.50;99.90
37300;DHT22;23184;51.902;12.836;2024-01-10T11:38:58;-3.50;99.90
37300;DHT22;23184;51.902;12.836;2024-01-10T11:41:34;-3.50;99.90
37300;DHT22;23184;51.902;12.836;2024-01-10T11:46:48;-3.30;99.90
37300;DHT22;23184;51.902;12.836;2024-01-10T11:49:18;-3.30;99.90
37300;DHT22;23184;51.902;12.836;2024-01-10T11:51:45;-3.20;99.90
37300;DHT22;23184;51.902;12.836;2024-01-10T11:54:11;-3.10;99.90
37300;DHT22;23184;51.902;12.836;2024-01-10T11:56:43;-3.10;99.90
37300;DHT22;23184;51.902;12.836;2024-01-10T11:59:15;-3.00;99.90
37300;DHT22;23184;51.902;12.836;2024-01-10T12:01:42;-3.00;99.90
37300;DHT22;23184;51.902;12.836;2024-01-10T12:04:08;-2.90;99.90
37300;DHT22;23184;51.902;12.836;2024-01-10T12:06:37;-2.80;99.90
37300;DHT22;23184;51.902;12.836;2024-01-10T12:09:03;-2.80;99.90
37300;DHT22;23184;51.902;12.836;2024-01-10T12:11:38;-2.80;99.90
37300;DHT22;23184;51.902;12.836;2024-01-10T12:14:04;-2.70;99.90
37300;DHT22;23184;51.902;12.836;2024-01-10T12:16:30;-2.70;99.90
37300;DHT22;23184;51.902;12.836;2024-01-10T12:18:57;-2.60;99.90
37300;DHT22;23184;51.902;12.836;2024-01-10T12:21:23;-2.60;99.90
37300;DHT22;23184;51.902;12.836;2024-01-10T12:23:48;-2.50;99.90
37300;DHT22;23184;51.902;12.836;2024-01-10T12:26:16;-2.40;99.90
37300;DHT22;23184;51.902;12.836;2024-01-10T12:28:53;-2.40;99.90
37300;DHT22;23184;51.902;12.836;2024-01-10T12:31:19;-2.40;99.90
37300;DHT22;23184;51.902;12.836;2024-01-10T12:33:48;-2.30;99.90
37300;DHT22;23184;51.902;12.836;2024-01-10T12:36:14;-2.20;99.90
37300;DHT22;23184;51.902;12.836;2024-01-10T12:38:39;-2.20;99.90
37300;DHT22;23184;51.902;12.836;2024-01-10T12:41:05;-2.20;99.90
37300;DHT22;23184;51.902;12.836;2024-01-10T12:43:31;-2.20;99.90
37300;DHT22;23184;51.902;12.836;2024-01-10T12:46:09;-2.10;99.90
37300;DHT22;23184;51.902;12.836;2024-01-10T12:48:39;-2.10;99.90
37300;DHT22;23184;51.902;12.836;2024-01-10T12:51:09;-2.10;99.90
37300;DHT22;23184;51.902;12.836;2024-01-10T12:53:36;-2.10;99.90
37300;DHT22;23184;51.902;12.836;2024-01-10T12:56:03;-2.10;99.90
37300;DHT22;23184;51.902;12.836;2024-01-10T12:58:30;-2.00;99.90
37300;DHT22;23184;51.902;12.836;2024-01-10T13:00:56;-2.00;99.90
37300;DHT22;23184;51.902;12.836;2024-01-10T13:03:22;-2.00;99.90
37300;DHT22;23184;51.902;12.836;2024-01-10T13:05:48;-1.90;99.90
37300;DHT22;23184;51.902;12.836;2024-01-10T13:08:14;-1.90;99.90
37300;DHT22;23184;51.902;12.836;2024-01-10T13:10:40;-1.80;99.90
37300;DHT22;23184;51.902;12.836;2024-01-10T13:13:06;-1.80;99.90
37300;DHT22;23184;51.902;12.836;2024-01-10T13:15:32;-1.80;99.90
37300;DHT22;23184;51.902;12.836;2024-01-10T13:17:57;-1.80;99.90
37300;DHT22;23184;51.902;12.836;2024-01-10T13:20:23;-1.80;99.90
37300;DHT22;23184;51.902;12.836;2024-01-10T13:22:50;-1.70;99.90
37300;DHT22;23184;51.902;12.836;2024-01-10T13:25:16;-1.70;99.90
37300;DHT22;23184;51.902;12.836;2024-01-10T13:27:42;-1.70;99.90
37300;DHT22;23184;51.902;12.836;2024-01-10T13:30:07;-1.70;99.90
37300;DHT22;23184;51.902;12.836;2024-01-10T13:32:37;-1.70;99.90
37300;DHT22;23184;51.902;12.836;2024-01-10T13:35:03;-1.60;99.90
37300;DHT22;23184;51.902;12.836;2024-01-10T13:37:29;-1.60;99.90
37300;DHT22;23184;51.902;12.836;2024-01-10T13:39:55;-1.60;99.90
37300;DHT22;23184;51.902;12.836;2024-01-10T13:42:21;-1.60;99.90
37300;DHT22;23184;51.902;12.836;2024-01-10T13:44:47;-1.60;99.90
37300;DHT22;23184;51.902;12.836;2024-01-10T13:47:12;-1.50;99.90
37300;DHT22;23184;51.902;12.836;2024-01-10T13:49:38;-1.50;99.90
37300;DHT22;23184;51.902;12.836;2024-01-10T13:52:04;-1.50;99.90
37300;DHT22;23184;51.902;12.836;2024-01-10T13:54:29;-1.50;99.90
37300;DHT22;23184;51.902;12.836;2024-01-10T13:56:55;-1.50;99.90
37300;DHT22;23184;51.902;12.836;2024-01-10T13:59:21;-1.50;99.90
37300;DHT22;23184;51.902;12.836;2024-01-10T14:01:46;-1.50;99.90
37300;DHT22;23184;51.902;12.836;2024-01-10T14:04:12;-1.50;99.90
37300;DHT22;23184;51.902;12.836;2024-01-10T14:06:38;-1.50;99.90
37300;DHT22;23184;51.902;12.836;2024-01-10T14:09:03;-1.50;99.90
37300;DHT22;23184;51.902;12.836;2024-01-10T14:11:28;-1.50;99.90
37300;DHT22;23184;51.902;12.836;2024-01-10T14:13:54;-1.50;99.90
37300;DHT22;23184;51.902;12.836;2024-01-10T14:16:19;-1.50;99.90
37300;DHT22;23184;51.902;12.836;2024-01-10T14:18:45;-1.50;99.90
37300;DHT22;23184;51.902;12.836;2024-01-10T14:21:12;-1.50;99.90
37300;DHT22;23184;51.902;12.836;2024-01-10T14:23:38;-1.50;99.90
37300;DHT22;23184;51.902;12.836;2024-01-10T14:26:03;-1.50;99.90
37300;DHT22;23184;51.902;12.836;2024-01-10T14:28:31;-1.50;99.90
37300;DHT22;23184;51.902;12.836;2024-01-10T14:30:58;-1.50;99.90
37300;DHT22;23184;51.902;12.836;2024-01-10T14:33:23;-1.50;99.90
37300;DHT22;23184;51.902;12.836;2024-01-10T14:35:49;-1.60;99.90
37300;DHT22;23184;51.902;12.836;2024-01-10T14:38:15;-1.60;99.90
37300;DHT22;23184;51.902;12.836;2024-01-10T14:40:40;-1.60;99.90
37300;DHT22;23184;51.902;12.836;2024-01-10T14:43:06;-1.60;99.90
37300;DHT22;23184;51.902;12.836;2024-01-10T14:45:31;-1.70;99.90
37300;DHT22;23184;51.902;12.836;2024-01-10T14:47:57;-1.70;99.90
37300;DHT22;23184;51.902;12.836;2024-01-10T14:50:22;-1.80;99.90
37300;DHT22;23184;51.902;12.836;2024-01-10T14:52:50;-1.80;99.90
37300;DHT22;23184;51.902;12.836;2024-01-10T14:55:15;-1.80;99.90
37300;DHT22;23184;51.902;12.836;2024-01-10T14:57:41;-1.90;99.90
37300;DHT22;23184;51.902;12.836;2024-01-10T15:00:07;-1.80;99.90
37300;DHT22;23184;51.902;12.836;2024-01-10T15:02:33;-1.80;99.90
37300;DHT22;23184;51.902;12.836;2024-01-10T15:04:59;-1.80;99.90
37300;DHT22;23184;51.902;12.836;2024-01-10T15:07:25;-1.80;99.90
37300;DHT22;23184;51.902;12.836;2024-01-10T15:09:51;-1.70;99.90
37300;DHT22;23184;51.902;12.836;2024-01-10T15:12:17;-1.60;99.90
37300;DHT22;23184;51.902;12.836;2024-01-10T15:14:42;-1.70;99.90
37300;DHT22;23184;51.902;12.836;2024-01-10T15:17:08;-1.70;99.90
37300;DHT22;23184;51.902;12.836;2024-01-10T15:19:37;-1.80;99.90
37300;DHT22;23184;51.902;12.836;2024-01-10T15:22:02;-2.00;99.90